createdAt,value
2018-09-11T00:00:53.130Z,0.00
2018-09-11T00:01:53.025Z,0.00
2018-09-11T00:02:52.971Z,0.00
2018-09-11T00:03:52.896Z,0.00
2018-09-11T00:06:34.845Z,0.00
2018-09-11T00:07:35.774Z,0.00
2018-09-11T00:08:34.655Z,0.00
2018-09-11T00:09:34.602Z,0.00
2018-09-11T00:10:34.555Z,0.00
2018-09-11T00:11:34.421Z,0.00
2018-09-11T00:12:34.341Z,0.00
2018-09-11T00:13:34.260Z,0.00
2018-09-11T00:14:34.203Z,0.00
2018-09-11T00:17:16.319Z,0.00
2018-09-11T00:18:16.260Z,0.00
2018-09-11T00:19:16.171Z,0.00
2018-09-11T00:20:16.108Z,0.00
2018-09-11T00:21:15.996Z,0.00
2018-09-11T00:22:15.930Z,0.00
2018-09-11T00:23:15.965Z,0.00
2018-09-11T00:24:15.765Z,0.00
2018-09-11T00:27:39.858Z,0.00
2018-09-11T00:28:39.753Z,0.00
2018-09-11T00:29:39.685Z,0.00
2018-09-11T00:30:39.587Z,0.00
2018-09-11T00:31:39.510Z,0.00
2018-09-11T00:32:39.427Z,0.00
2018-09-11T00:33:39.379Z,0.00
2018-09-11T00:34:39.270Z,0.00
2018-09-11T00:35:39.184Z,0.00
2018-09-11T00:36:39.102Z,0.00
2018-09-11T00:37:39.026Z,0.00
2018-09-11T00:38:38.970Z,0.00
2018-09-11T00:39:38.869Z,0.00
2018-09-11T00:40:38.816Z,0.00
2018-09-11T00:41:38.712Z,0.00
2018-09-11T00:42:38.631Z,0.00
2018-09-11T00:43:38.550Z,0.00
2018-09-11T00:44:38.471Z,0.00
2018-09-11T00:45:38.410Z,0.00
2018-09-11T00:46:38.313Z,0.00
2018-09-11T00:47:38.234Z,0.00
2018-09-11T00:48:38.153Z,0.00
2018-09-11T00:49:38.073Z,0.00
2018-09-11T00:50:38.005Z,0.00
2018-09-11T00:51:37.915Z,0.00
2018-09-11T00:52:37.832Z,0.00
2018-09-11T00:53:37.742Z,0.00
2018-09-11T00:54:37.681Z,0.00
2018-09-11T00:55:37.612Z,0.00
2018-09-11T00:56:37.520Z,0.00
2018-09-11T00:57:37.440Z,0.00
2018-09-11T00:58:37.351Z,0.00
2018-09-11T01:01:19.367Z,0.00
2018-09-11T01:04:01.334Z,0.00
2018-09-11T01:05:01.264Z,0.00
2018-09-11T01:06:01.193Z,0.00
2018-09-11T01:07:01.107Z,0.00
2018-09-11T01:08:01.026Z,0.00
2018-09-11T01:10:42.847Z,0.00
2018-09-11T01:11:42.786Z,0.00
2018-09-11T01:12:42.675Z,0.00
2018-09-11T01:13:42.602Z,0.00
2018-09-11T01:14:42.522Z,0.00
2018-09-11T01:17:24.354Z,0.00
2018-09-11T01:18:24.268Z,0.00
2018-09-11T01:19:24.177Z,0.00
2018-09-11T01:20:24.116Z,0.00
2018-09-11T01:21:24.206Z,0.00
2018-09-11T01:22:23.950Z,0.00
2018-09-11T01:47:06.366Z,0.00
2018-09-11T01:48:06.339Z,0.00
2018-09-11T01:49:06.197Z,0.00
2018-09-11T01:50:06.122Z,0.00
2018-09-11T01:51:06.038Z,0.00
2018-09-11T01:53:47.857Z,0.00
2018-09-11T01:54:47.768Z,0.00
2018-09-11T01:55:47.683Z,0.00
2018-09-11T01:56:47.626Z,0.00
2018-09-11T01:57:47.540Z,0.00
2018-09-11T02:00:20.620Z,0.00
2018-09-11T02:01:18.875Z,0.00
2018-09-11T02:02:18.831Z,0.00
2018-09-11T02:03:18.736Z,0.00
2018-09-11T02:04:18.663Z,0.00
2018-09-11T02:05:18.558Z,0.00
2018-09-11T02:06:18.493Z,0.00
2018-09-11T02:07:18.400Z,0.00
2018-09-11T02:08:18.326Z,0.00
2018-09-11T02:09:18.273Z,0.00
2018-09-11T02:10:18.169Z,0.00
2018-09-11T02:11:18.080Z,0.00
2018-09-11T02:12:18.001Z,0.00
2018-09-11T02:13:17.938Z,0.00
2018-09-11T02:14:17.927Z,0.00
2018-09-11T02:15:17.787Z,0.00
2018-09-11T02:16:17.684Z,0.00
2018-09-11T02:17:17.654Z,0.00
2018-09-11T02:18:17.549Z,0.00
2018-09-11T02:19:17.436Z,0.00
2018-09-11T02:20:17.517Z,0.00
2018-09-11T02:21:17.281Z,0.00
2018-09-11T02:23:59.557Z,0.00
2018-09-11T02:24:59.452Z,0.00
2018-09-11T02:25:59.375Z,0.00
2018-09-11T02:26:59.310Z,0.00
2018-09-11T02:27:59.217Z,0.00
2018-09-11T02:28:59.166Z,0.00
2018-09-11T02:29:59.104Z,0.00
2018-09-11T02:30:58.967Z,0.00
2018-09-11T02:31:58.882Z,0.00
2018-09-11T02:32:58.818Z,0.00
2018-09-11T02:33:58.724Z,0.00
2018-09-11T02:34:58.672Z,0.00
2018-09-11T02:35:58.604Z,0.00
2018-09-11T02:36:58.496Z,0.00
2018-09-11T02:37:58.407Z,0.00
2018-09-11T02:38:58.336Z,0.00
2018-09-11T02:39:58.249Z,0.00
2018-09-11T02:40:58.202Z,0.00
2018-09-11T02:41:58.087Z,0.00
2018-09-11T02:42:58.005Z,0.00
2018-09-11T02:43:57.919Z,0.00
2018-09-11T02:44:57.863Z,0.00
2018-09-11T02:45:57.788Z,0.00
2018-09-11T02:46:57.696Z,0.00
2018-09-11T02:47:57.614Z,0.00
2018-09-11T02:48:57.533Z,0.00
2018-09-11T02:49:57.447Z,0.00
2018-09-11T02:50:57.367Z,0.00
2018-09-11T02:51:57.306Z,0.00
2018-09-11T02:52:57.216Z,0.00
2018-09-11T02:53:57.124Z,0.00
2018-09-11T02:54:57.052Z,0.00
2018-09-11T02:55:57.048Z,0.00
2018-09-11T02:56:57.903Z,0.00
2018-09-11T02:57:56.806Z,0.00
2018-09-11T02:58:56.744Z,0.00
2018-09-11T02:59:56.647Z,0.00
2018-09-11T03:00:56.604Z,0.00
2018-09-11T03:01:56.482Z,0.00
2018-09-11T03:02:56.416Z,0.00
2018-09-11T03:03:56.323Z,0.00
2018-09-11T03:04:56.251Z,0.00
2018-09-11T03:05:56.169Z,0.00
2018-09-11T03:06:56.135Z,0.00
2018-09-11T03:07:56.004Z,0.00
2018-09-11T03:10:38.039Z,0.00
2018-09-11T03:13:20.060Z,0.00
2018-09-11T03:14:19.982Z,0.00
2018-09-11T03:15:19.876Z,0.00
2018-09-11T03:16:19.815Z,0.00
2018-09-11T03:17:19.743Z,0.00
2018-09-11T03:18:19.645Z,0.00
2018-09-11T03:19:19.553Z,0.00
2018-09-11T03:20:19.481Z,0.00
2018-09-11T03:21:19.407Z,0.00
2018-09-11T03:22:19.346Z,0.00
2018-09-11T03:23:19.243Z,0.00
2018-09-11T03:26:01.552Z,0.00
2018-09-11T03:27:01.487Z,0.00
2018-09-11T03:28:01.407Z,0.00
2018-09-11T03:29:01.318Z,0.00
2018-09-11T03:30:01.232Z,0.00
2018-09-11T03:31:01.149Z,0.00
2018-09-11T03:32:01.061Z,0.00
2018-09-11T03:33:01.015Z,0.00
2018-09-11T03:34:00.897Z,0.00
2018-09-11T03:35:00.830Z,0.00
2018-09-11T03:36:00.741Z,0.00
2018-09-11T03:37:00.667Z,0.00
2018-09-11T03:38:00.599Z,0.00
2018-09-11T03:39:00.510Z,0.00
2018-09-11T03:40:00.427Z,0.00
2018-09-11T03:42:42.580Z,0.00
2018-09-11T03:43:42.474Z,0.00
2018-09-11T03:44:42.385Z,0.00
2018-09-11T03:45:42.312Z,0.00
2018-09-11T03:46:42.224Z,0.00
2018-09-11T03:47:42.155Z,0.00
2018-09-11T03:48:42.087Z,0.00
2018-09-11T03:49:42.001Z,0.00
2018-09-11T03:50:41.908Z,0.00
2018-09-11T03:51:41.844Z,0.00
2018-09-11T03:52:41.774Z,0.00
2018-09-11T03:53:42.701Z,0.00
2018-09-11T03:54:41.592Z,0.00
2018-09-11T03:55:41.547Z,0.00
2018-09-11T03:56:41.422Z,0.00
2018-09-11T03:57:41.364Z,0.00
2018-09-11T03:58:41.312Z,0.00
2018-09-11T03:59:41.198Z,0.00
2018-09-11T04:00:41.103Z,0.00
2018-09-11T04:03:23.081Z,0.00
2018-09-11T04:04:44.084Z,0.00
2018-09-11T04:05:22.916Z,0.00
2018-09-11T04:06:22.810Z,0.00
2018-09-11T04:07:22.885Z,0.00
2018-09-11T04:08:22.661Z,0.00
2018-09-11T04:09:22.685Z,0.00
2018-09-11T04:10:22.501Z,0.00
2018-09-11T04:11:22.463Z,0.00
2018-09-11T04:12:22.340Z,0.00
2018-09-11T04:13:22.360Z,0.00
2018-09-11T04:14:22.203Z,0.00
2018-09-11T04:17:04.056Z,0.00
2018-09-11T04:18:04.060Z,0.00
2018-09-11T04:19:03.893Z,0.00
2018-09-11T04:20:03.915Z,0.00
2018-09-11T04:21:03.729Z,0.00
2018-09-11T04:22:03.663Z,0.00
2018-09-11T04:23:03.576Z,0.00
2018-09-11T04:24:03.596Z,0.00
2018-09-11T04:25:03.462Z,0.00
2018-09-11T04:26:03.405Z,0.00
2018-09-11T04:27:03.261Z,0.00
2018-09-11T04:28:03.325Z,0.00
2018-09-11T04:29:03.123Z,0.00
2018-09-11T04:30:03.174Z,0.00
2018-09-11T04:31:02.993Z,0.00
2018-09-11T04:32:03.594Z,0.00
2018-09-11T04:33:02.777Z,0.00
2018-09-11T04:34:02.743Z,0.00
2018-09-11T04:35:02.635Z,0.00
2018-09-11T04:36:02.645Z,0.00
2018-09-11T04:37:02.460Z,0.00
2018-09-11T04:38:02.389Z,0.00
2018-09-11T04:39:02.302Z,0.00
2018-09-11T04:40:02.250Z,0.00
2018-09-11T04:41:02.137Z,0.00
2018-09-11T04:42:02.077Z,0.00
2018-09-11T04:43:02.050Z,0.00
2018-09-11T04:44:01.900Z,0.00
2018-09-11T04:45:01.838Z,0.00
2018-09-11T04:46:01.787Z,0.00
2018-09-11T04:47:01.676Z,0.00
2018-09-11T04:48:01.586Z,0.00
2018-09-11T04:49:01.502Z,0.00
2018-09-11T04:50:01.555Z,0.00
2018-09-11T04:51:01.349Z,0.00
2018-09-11T04:53:43.580Z,0.00
2018-09-11T04:54:43.494Z,0.00
2018-09-11T04:55:43.423Z,0.00
2018-09-11T04:56:43.337Z,0.00
2018-09-11T04:57:43.248Z,0.00
2018-09-11T04:58:43.179Z,0.00
2018-09-11T05:22:05.355Z,33.75
2018-09-11T05:23:05.158Z,39.38
2018-09-11T05:24:05.087Z,45.00
2018-09-11T05:25:04.982Z,50.63
2018-09-11T05:26:04.916Z,45.00
2018-09-11T05:27:04.874Z,45.00
2018-09-11T05:28:04.770Z,45.00
2018-09-11T05:29:04.663Z,45.00
2018-09-11T05:30:04.612Z,50.63
2018-09-11T05:31:04.513Z,50.63
2018-09-11T05:32:04.455Z,56.25
2018-09-11T05:33:04.351Z,61.88
2018-09-11T05:34:04.273Z,61.88
2018-09-11T05:35:04.193Z,67.50
2018-09-11T05:36:04.116Z,73.13
2018-09-11T05:37:04.039Z,73.13
2018-09-11T05:38:03.993Z,78.75
2018-09-11T05:39:03.935Z,78.75
2018-09-11T05:40:03.803Z,78.75
2018-09-11T05:41:03.715Z,84.38
2018-09-11T05:42:03.647Z,84.38
2018-09-11T05:43:03.544Z,90.00
2018-09-11T05:45:45.589Z,95.63
2018-09-11T05:46:45.539Z,101.25
2018-09-11T05:47:45.443Z,101.25
2018-09-11T05:50:27.589Z,112.50
2018-09-11T05:51:27.556Z,112.50
2018-09-11T05:52:27.466Z,112.50
2018-09-11T05:53:27.380Z,118.13
2018-09-11T05:54:27.258Z,118.13
2018-09-11T05:55:27.197Z,118.13
2018-09-11T05:56:27.107Z,118.13
2018-09-11T05:57:27.035Z,118.13
2018-09-11T05:58:27.036Z,118.13
2018-09-11T05:59:26.868Z,118.13
2018-09-11T06:00:26.784Z,118.13
2018-09-11T06:01:26.738Z,123.75
2018-09-11T06:02:26.622Z,129.38
2018-09-11T06:03:26.570Z,129.38
2018-09-11T06:04:26.459Z,135.00
2018-09-11T06:05:26.400Z,140.63
2018-09-11T06:06:26.303Z,140.63
2018-09-11T06:07:26.393Z,146.25
2018-09-11T06:08:26.139Z,151.88
2018-09-11T06:11:08.133Z,168.75
2018-09-11T06:12:09.032Z,180.00
2018-09-11T06:13:07.931Z,180.00
2018-09-11T06:14:07.873Z,185.63
2018-09-11T06:15:07.767Z,191.25
2018-09-11T06:17:49.599Z,191.25
2018-09-11T06:18:50.658Z,191.25
2018-09-11T06:19:49.425Z,191.25
2018-09-11T06:20:49.364Z,196.88
2018-09-11T06:21:49.273Z,202.50
2018-09-11T06:22:49.192Z,208.13
2018-09-11T06:23:49.132Z,213.75
2018-09-11T06:24:49.049Z,236.25
2018-09-11T06:25:49.023Z,225.00
2018-09-11T06:29:35.121Z,258.75
2018-09-11T06:30:35.017Z,320.63
2018-09-11T06:31:34.945Z,315.00
2018-09-11T06:32:34.862Z,292.50
2018-09-11T06:33:34.787Z,258.75
2018-09-11T06:34:34.716Z,258.75
2018-09-11T06:46:11.543Z,433.13
2018-09-11T06:47:11.423Z,540.00
2018-09-11T06:48:11.349Z,562.50
2018-09-11T06:49:11.379Z,765.00
2018-09-11T06:50:11.209Z,675.00
2018-09-11T06:51:11.096Z,618.75
2018-09-11T06:53:53.108Z,781.88
2018-09-11T06:54:53.129Z,860.63
2018-09-11T06:55:53.163Z,770.63
2018-09-11T06:56:52.872Z,742.50
2018-09-11T06:57:52.797Z,815.63
2018-09-11T06:58:52.741Z,669.38
2018-09-11T06:59:52.648Z,607.50
2018-09-11T07:00:52.589Z,838.13
2018-09-11T07:01:52.520Z,916.88
2018-09-11T07:02:52.394Z,1068.75
2018-09-11T07:03:52.322Z,1108.13
2018-09-11T07:04:52.304Z,1012.50
2018-09-11T07:05:52.188Z,838.13
2018-09-11T07:06:52.085Z,630.00
2018-09-11T07:07:52.092Z,551.25
2018-09-11T07:08:51.923Z,427.50
2018-09-11T07:09:51.841Z,410.63
2018-09-11T07:10:51.816Z,433.13
2018-09-11T07:11:51.709Z,506.25
2018-09-11T07:12:51.618Z,635.63
2018-09-11T07:13:51.533Z,776.25
2018-09-11T07:14:51.537Z,585.00
2018-09-11T07:15:51.525Z,579.38
2018-09-11T07:16:51.399Z,534.38
2018-09-11T07:17:51.230Z,495.00
2018-09-11T07:18:51.161Z,483.75
2018-09-11T07:19:51.168Z,495.00
2018-09-11T07:20:52.015Z,489.38
2018-09-11T07:21:51.083Z,545.63
2018-09-11T07:22:50.857Z,483.75
2018-09-11T07:23:50.787Z,388.13
2018-09-11T07:24:50.733Z,466.88
2018-09-11T07:25:51.219Z,562.50
2018-09-11T07:26:50.883Z,601.88
2018-09-11T07:27:50.642Z,556.88
2018-09-11T07:28:51.150Z,517.50
2018-09-11T07:29:50.319Z,495.00
2018-09-11T07:30:50.231Z,568.13
2018-09-11T07:31:50.177Z,562.50
2018-09-11T07:32:50.093Z,551.25
2018-09-11T07:33:50.007Z,523.13
2018-09-11T07:36:32.169Z,326.25
2018-09-11T07:37:33.475Z,281.25
2018-09-11T07:38:31.967Z,275.63
2018-09-11T07:39:31.892Z,258.75
2018-09-11T07:40:31.808Z,292.50
2018-09-11T07:41:31.735Z,298.13
2018-09-11T07:42:31.747Z,320.63
2018-09-11T07:43:31.604Z,416.25
2018-09-11T07:44:31.497Z,517.50
2018-09-11T07:45:31.495Z,585.00
2018-09-11T07:46:31.341Z,568.13
2018-09-11T07:47:31.286Z,590.63
2018-09-11T07:48:31.208Z,517.50
2018-09-11T07:49:31.112Z,590.63
2018-09-11T07:50:31.017Z,894.38
2018-09-11T07:51:30.963Z,765.00
2018-09-11T07:52:30.984Z,652.50
2018-09-11T07:53:30.807Z,708.75
2018-09-11T07:54:30.708Z,973.13
2018-09-11T07:55:30.639Z,652.50
2018-09-11T07:56:30.578Z,928.13
2018-09-11T07:57:30.522Z,804.38
2018-09-11T07:58:30.416Z,787.50
2018-09-11T08:01:12.645Z,731.25
2018-09-11T08:02:12.576Z,804.38
2018-09-11T08:03:12.571Z,821.25
2018-09-11T08:04:12.414Z,843.75
2018-09-11T08:05:12.355Z,871.88
2018-09-11T08:06:12.250Z,630.00
2018-09-11T08:07:12.177Z,905.63
2018-09-11T08:08:12.129Z,922.50
2018-09-11T08:09:12.012Z,945.00
2018-09-11T08:11:54.815Z,916.88
2018-09-11T08:12:54.772Z,911.25
2018-09-11T08:13:53.976Z,928.13
2018-09-11T08:14:53.918Z,933.75
2018-09-11T08:15:53.836Z,922.50
2018-09-11T08:16:53.776Z,928.13
2018-09-11T08:17:53.721Z,933.75
2018-09-11T08:18:53.649Z,810.00
2018-09-11T08:19:53.542Z,815.63
2018-09-11T08:20:53.469Z,798.75
2018-09-11T08:21:53.386Z,765.00
2018-09-11T08:22:53.320Z,759.38
2018-09-11T08:23:53.278Z,843.75
2018-09-11T08:24:53.201Z,922.50
2018-09-11T08:25:53.104Z,556.88
2018-09-11T08:26:53.040Z,787.50
2018-09-11T08:27:52.971Z,883.13
2018-09-11T08:28:53.911Z,928.13
2018-09-11T08:29:52.814Z,832.50
2018-09-11T08:30:52.757Z,877.50
2018-09-11T08:31:52.666Z,871.88
2018-09-11T08:32:52.597Z,933.75
2018-09-11T08:33:52.550Z,900.00
2018-09-11T08:34:52.468Z,866.25
2018-09-11T08:35:52.485Z,905.63
2018-09-11T08:38:34.648Z,1018.13
2018-09-11T08:39:34.620Z,922.50
2018-09-11T08:40:34.489Z,900.00
2018-09-11T08:41:34.436Z,894.38
2018-09-11T08:42:34.363Z,900.00
2018-09-11T08:43:34.296Z,900.00
2018-09-11T08:44:34.242Z,905.63
2018-09-11T08:47:16.153Z,877.50
2018-09-11T08:48:16.089Z,888.75
2018-09-11T08:49:16.055Z,900.00
2018-09-11T08:50:15.936Z,928.13
2018-09-11T08:51:15.860Z,933.75
2018-09-11T08:53:58.296Z,900.00
2018-09-11T08:54:58.144Z,950.63
2018-09-11T08:55:58.146Z,984.38
2018-09-11T08:56:58.087Z,973.13
2018-09-11T08:57:57.879Z,1063.13
2018-09-11T08:58:58.776Z,978.75
2018-09-11T08:59:57.751Z,1119.38
2018-09-11T09:00:57.746Z,1001.25
2018-09-11T09:01:57.602Z,1096.88
2018-09-11T09:02:57.525Z,658.13
2018-09-11T09:03:57.608Z,973.13
2018-09-11T09:04:57.413Z,1035.00
2018-09-11T09:08:42.705Z,849.38
2018-09-11T09:09:42.621Z,967.50
2018-09-11T09:10:42.548Z,939.38
2018-09-11T09:11:42.452Z,973.13
2018-09-11T09:12:42.402Z,990.00
2018-09-11T09:13:42.316Z,950.63
2018-09-11T09:14:42.283Z,956.25
2018-09-11T09:15:42.362Z,967.50
2018-09-11T09:16:42.113Z,956.25
2018-09-11T09:17:42.044Z,905.63
2018-09-11T09:18:42.057Z,916.88
2018-09-11T09:19:41.918Z,945.00
2018-09-11T09:20:41.853Z,978.75
2018-09-11T09:21:41.924Z,950.63
2018-09-11T09:24:23.677Z,871.88
2018-09-11T09:25:23.826Z,978.75
2018-09-11T09:26:23.556Z,961.88
2018-09-11T09:27:23.489Z,1001.25
2018-09-11T09:28:23.384Z,1057.50
2018-09-11T09:52:45.427Z,1496.25
2018-09-11T09:53:45.298Z,1558.13
2018-09-11T09:54:45.281Z,1552.50
2018-09-11T09:57:27.216Z,1389.38
2018-09-11T09:58:27.124Z,1445.63
2018-09-11T09:59:27.078Z,1462.50
2018-09-11T10:00:27.003Z,1243.13
2018-09-11T10:01:26.900Z,1591.88
2018-09-11T10:02:26.876Z,1603.13
2018-09-11T10:03:26.778Z,1670.63
2018-09-11T10:04:26.745Z,1681.88
2018-09-11T10:05:26.621Z,1721.25
2018-09-11T10:08:08.709Z,1372.50
2018-09-11T10:10:50.686Z,1653.75
2018-09-11T10:11:50.640Z,1586.25
2018-09-11T10:12:50.567Z,1738.13
2018-09-11T10:13:50.479Z,1710.00
2018-09-11T10:14:50.413Z,1620.00
2018-09-11T10:17:32.753Z,1777.50
2018-09-11T10:18:32.676Z,1878.75
2018-09-11T10:19:32.543Z,1890.00
2018-09-11T10:20:32.492Z,1861.88
2018-09-11T10:21:32.494Z,1968.75
2018-09-11T10:22:32.352Z,1946.25
2018-09-11T10:23:32.322Z,1923.75
2018-09-11T10:24:32.231Z,1923.75
2018-09-11T10:25:32.165Z,1805.63
2018-09-11T10:28:14.229Z,1923.75
2018-09-11T10:29:14.143Z,1968.75
2018-09-11T10:39:12.192Z,1861.88
2018-09-11T10:40:12.097Z,1906.88
2018-09-11T10:42:54.199Z,1878.75
2018-09-11T10:43:54.162Z,1805.63
2018-09-11T10:44:54.062Z,1957.50
2018-09-11T10:45:54.004Z,1957.50
2018-09-11T10:46:53.922Z,1957.50
2018-09-11T10:47:53.857Z,1901.25
2018-09-11T10:48:53.877Z,1991.25
2018-09-11T10:49:53.846Z,2008.13
2018-09-11T10:50:53.666Z,1918.13
2018-09-11T10:51:53.635Z,2053.13
2018-09-11T10:52:53.540Z,2053.13
2018-09-11T10:55:35.789Z,2053.13
2018-09-11T10:56:35.641Z,1715.63
2018-09-11T10:57:35.554Z,1771.88
2018-09-11T10:58:35.504Z,1884.38
2018-09-11T10:59:35.453Z,2019.38
2018-09-11T11:02:17.708Z,1974.38
2018-09-11T11:06:38.704Z,2047.50
2018-09-11T11:09:20.761Z,2120.63
2018-09-11T11:10:20.672Z,2002.50
2018-09-11T11:11:20.593Z,1918.13
2018-09-11T11:12:20.508Z,1833.75
2018-09-11T11:13:20.479Z,1873.13
2018-09-11T11:14:20.390Z,1867.50
2018-09-11T11:15:20.300Z,1940.63
2018-09-11T11:16:20.265Z,1968.75
2018-09-11T11:17:20.175Z,2019.38
2018-09-11T11:18:20.122Z,2092.50
2018-09-11T11:19:20.047Z,2098.13
2018-09-11T11:20:21.002Z,1743.75
2018-09-11T11:21:19.920Z,1732.50
2018-09-11T11:22:19.838Z,2070.00
2018-09-11T11:23:19.762Z,1991.25
2018-09-11T11:24:19.715Z,2025.00
2018-09-11T11:25:19.709Z,2092.50
2018-09-11T11:26:19.592Z,2013.75
2018-09-11T11:27:19.575Z,1957.50
2018-09-11T11:28:19.445Z,2036.25
2018-09-11T11:29:19.396Z,1985.63
2018-09-11T11:30:19.321Z,2047.50
2018-09-11T11:31:19.230Z,1816.88
2018-09-11T11:32:19.192Z,1833.75
2018-09-11T11:33:19.128Z,1991.25
2018-09-11T11:34:19.048Z,1991.25
2018-09-11T11:35:18.993Z,1884.38
2018-09-11T11:38:01.227Z,2047.50
2018-09-11T11:39:01.155Z,1940.63
2018-09-11T11:40:01.085Z,2025.00
2018-09-11T11:41:01.064Z,2002.50
2018-09-11T11:42:00.953Z,1991.25
2018-09-11T11:43:00.890Z,1867.50
2018-09-11T11:44:00.861Z,1743.75
2018-09-11T11:45:00.756Z,1968.75
2018-09-11T11:46:00.708Z,1974.38
2018-09-11T11:47:00.621Z,2041.88
2018-09-11T11:48:00.554Z,2103.75
2018-09-11T11:49:01.512Z,1867.50
2018-09-11T11:50:00.416Z,2109.38
2018-09-11T11:51:01.372Z,2092.50
2018-09-11T11:52:00.275Z,1985.63
2018-09-11T11:53:00.236Z,1946.25
2018-09-11T11:54:00.149Z,2041.88
2018-09-11T11:55:00.155Z,2041.88
2018-09-11T11:56:00.042Z,1946.25
2018-09-11T11:57:00.970Z,1968.75
2018-09-11T11:57:59.886Z,1620.00
2018-09-11T11:58:59.864Z,2075.63
2018-09-11T11:59:59.755Z,1665.00
2018-09-11T12:00:59.697Z,956.25
2018-09-11T12:01:59.683Z,466.88
2018-09-11T12:04:41.729Z,393.75
2018-09-11T12:07:23.746Z,371.25
2018-09-11T12:10:05.732Z,354.38
2018-09-11T12:11:05.679Z,343.13
2018-09-11T12:12:05.606Z,360.00
2018-09-11T12:13:05.552Z,354.38
2018-09-11T12:14:05.444Z,371.25
2018-09-11T12:15:05.382Z,371.25
2018-09-11T12:16:05.327Z,382.50
2018-09-11T12:17:05.345Z,382.50
2018-09-11T12:18:05.171Z,365.63
2018-09-11T12:19:05.182Z,365.63
2018-09-11T12:20:05.019Z,365.63
2018-09-11T12:21:04.953Z,365.63
2018-09-11T12:22:04.895Z,365.63
2018-09-11T12:23:04.844Z,365.63
2018-09-11T12:24:04.723Z,365.63
2018-09-11T12:25:04.681Z,365.63
2018-09-11T12:26:04.610Z,348.75
2018-09-11T12:28:46.751Z,354.38
2018-09-11T12:29:46.669Z,348.75
2018-09-11T12:30:46.589Z,348.75
2018-09-11T12:31:46.555Z,337.50
2018-09-11T12:38:27.391Z,315.00
2018-09-11T12:39:27.319Z,303.75
2018-09-11T12:40:27.230Z,303.75
2018-09-11T12:41:27.156Z,309.38
2018-09-11T12:42:27.099Z,298.13
2018-09-11T12:43:27.033Z,292.50
2018-09-11T12:44:26.933Z,303.75
2018-09-11T12:45:26.858Z,303.75
2018-09-11T12:46:27.039Z,292.50
2018-09-11T12:47:27.263Z,309.38
2018-09-11T12:48:26.783Z,298.13
2018-09-11T12:49:26.566Z,298.13
2018-09-11T12:50:26.489Z,292.50
2018-09-11T12:53:08.772Z,281.25
2018-09-11T12:54:09.693Z,281.25
2018-09-11T12:55:08.596Z,281.25
2018-09-11T12:56:08.529Z,286.88
2018-09-11T12:57:08.446Z,281.25
2018-09-11T12:58:08.402Z,270.00
2018-09-11T12:59:08.297Z,270.00
2018-09-11T13:00:08.248Z,270.00
2018-09-11T13:01:08.158Z,270.00
2018-09-11T13:02:08.079Z,270.00
2018-09-11T13:03:07.995Z,258.75
2018-09-11T13:04:07.955Z,258.75
2018-09-11T13:05:07.844Z,253.13
2018-09-11T13:07:49.754Z,253.13
2018-09-11T13:08:49.717Z,241.88
2018-09-11T13:09:49.598Z,236.25
2018-09-11T13:12:31.750Z,230.63
2018-09-11T13:13:31.694Z,236.25
2018-09-11T13:14:31.625Z,225.00
2018-09-11T13:15:31.531Z,230.63
2018-09-11T13:16:31.450Z,225.00
2018-09-11T13:19:13.850Z,230.63
2018-09-11T13:21:55.761Z,225.00
2018-09-11T13:22:55.693Z,230.63
2018-09-11T13:23:55.627Z,196.88
2018-09-11T13:24:55.563Z,219.38
2018-09-11T13:25:55.450Z,208.13
2018-09-11T13:28:37.755Z,208.13
2018-09-11T13:29:37.713Z,208.13
2018-09-11T13:30:37.617Z,202.50
2018-09-11T13:31:37.536Z,208.13
2018-09-11T13:32:37.462Z,202.50
2018-09-11T13:33:37.425Z,202.50
2018-09-11T13:34:37.323Z,202.50
2018-09-11T13:37:19.259Z,185.63
2018-09-11T13:38:19.190Z,191.25
2018-09-11T13:39:19.103Z,191.25
2018-09-11T13:40:19.072Z,191.25
2018-09-11T13:41:18.964Z,196.88
2018-09-11T13:44:01.263Z,196.88
2018-09-11T13:45:01.208Z,208.13
2018-09-11T13:46:01.109Z,196.88
2018-09-11T13:47:01.075Z,191.25
2018-09-11T13:48:00.979Z,191.25
2018-09-11T13:49:00.905Z,191.25
2018-09-11T13:50:00.830Z,191.25
2018-09-11T13:51:01.761Z,191.25
2018-09-11T13:52:00.674Z,196.88
2018-09-11T13:53:00.637Z,191.25
2018-09-11T13:54:00.511Z,191.25
2018-09-11T13:56:42.955Z,185.63
2018-09-11T13:57:42.734Z,185.63
2018-09-11T13:58:42.612Z,180.00
2018-09-11T13:59:42.555Z,180.00
2018-09-11T14:00:42.487Z,185.63
2018-09-11T14:01:42.417Z,191.25
2018-09-11T14:02:42.459Z,185.63
2018-09-11T14:03:42.250Z,180.00
2018-09-11T14:04:42.170Z,185.63
2018-09-11T14:05:42.127Z,185.63
2018-09-11T14:06:42.038Z,185.63
2018-09-11T14:07:41.945Z,185.63
2018-09-11T14:08:41.904Z,174.38
2018-09-11T14:11:24.901Z,174.38
2018-09-11T14:12:23.711Z,180.00
2018-09-11T14:13:23.624Z,174.38
2018-09-11T14:14:23.551Z,163.13
2018-09-11T14:15:23.467Z,174.38
2018-09-11T14:16:23.433Z,174.38
2018-09-11T14:17:23.329Z,174.38
2018-09-11T14:18:23.256Z,174.38
2018-09-11T14:19:23.172Z,174.38
2018-09-11T14:20:23.111Z,168.75
2018-09-11T14:21:23.109Z,174.38
2018-09-11T14:22:22.979Z,174.38
2018-09-11T14:23:22.876Z,174.38
2018-09-11T14:24:22.801Z,151.88
2018-09-11T14:25:22.723Z,151.88
2018-09-11T14:26:22.658Z,157.50
2018-09-11T14:27:22.622Z,157.50
2018-09-11T14:28:22.510Z,157.50
2018-09-11T14:29:22.474Z,163.13
2018-09-11T14:30:22.377Z,163.13
2018-09-11T14:31:22.304Z,157.50
2018-09-11T14:32:22.219Z,157.50
2018-09-11T14:33:22.125Z,157.50
2018-09-11T14:34:22.113Z,157.50
2018-09-11T14:35:21.983Z,168.75
2018-09-11T14:36:21.917Z,157.50
2018-09-11T14:37:21.849Z,157.50
2018-09-11T14:40:03.792Z,163.13
2018-09-11T14:41:03.704Z,157.50
2018-09-11T14:42:03.653Z,157.50
2018-09-11T14:43:03.588Z,157.50
2018-09-11T14:44:03.485Z,157.50
2018-09-11T14:45:03.421Z,157.50
2018-09-11T14:46:03.346Z,157.50
2018-09-11T14:47:04.285Z,168.75
2018-09-11T14:48:03.187Z,157.50
2018-09-11T14:49:03.112Z,163.13
2018-09-11T14:50:03.069Z,168.75
2018-09-11T14:51:02.980Z,163.13
2018-09-11T14:52:02.900Z,168.75
2018-09-11T14:53:02.837Z,168.75
2018-09-11T14:54:02.751Z,168.75
2018-09-11T14:55:02.674Z,174.38
2018-09-11T14:56:02.618Z,168.75
2018-09-11T14:58:44.800Z,180.00
2018-09-11T14:59:44.723Z,163.13
2018-09-11T15:00:44.634Z,157.50
2018-09-11T15:01:44.573Z,163.13
2018-09-11T15:02:44.512Z,168.75
2018-09-11T15:03:45.496Z,151.88
2018-09-11T15:04:44.339Z,163.13
2018-09-11T15:05:44.276Z,157.50
2018-09-11T15:06:44.216Z,157.50
2018-09-11T15:07:44.151Z,157.50
2018-09-11T15:08:44.072Z,163.13
2018-09-11T15:09:43.980Z,151.88
2018-09-11T15:10:43.902Z,157.50
2018-09-11T15:13:25.812Z,157.50
2018-09-11T15:14:25.753Z,157.50
2018-09-11T15:15:25.641Z,163.13
2018-09-11T15:16:25.582Z,146.25
2018-09-11T15:17:25.505Z,146.25
2018-09-11T15:18:25.584Z,157.50
2018-09-11T15:19:25.343Z,146.25
2018-09-11T15:20:25.277Z,140.63
2018-09-11T15:21:25.192Z,146.25
2018-09-11T15:22:25.124Z,146.25
2018-09-11T15:23:25.072Z,151.88
2018-09-11T15:24:24.991Z,146.25
2018-09-11T15:25:24.899Z,151.88
2018-09-11T15:28:32.323Z,151.88
2018-09-11T15:29:32.270Z,157.50
2018-09-11T15:30:32.162Z,151.88
2018-09-11T15:31:32.076Z,151.88
2018-09-11T15:32:32.005Z,151.88
2018-09-11T15:33:31.952Z,151.88
2018-09-11T15:34:32.881Z,140.63
2018-09-11T15:35:31.792Z,146.25
2018-09-11T15:36:31.703Z,146.25
2018-09-11T15:37:31.650Z,146.25
2018-09-11T15:38:31.744Z,146.25
2018-09-11T15:39:31.741Z,146.25
2018-09-11T15:40:31.803Z,140.63
2018-09-11T15:41:31.645Z,146.25
2018-09-11T15:42:31.263Z,157.50
2018-09-11T15:43:31.176Z,151.88
2018-09-11T15:44:31.267Z,140.63
2018-09-11T15:45:31.052Z,140.63
2018-09-11T15:46:30.977Z,140.63
2018-09-11T15:47:30.883Z,146.25
2018-09-11T15:50:12.833Z,146.25
2018-09-11T15:52:54.824Z,135.00
2018-09-11T15:53:54.749Z,135.00
2018-09-11T15:54:54.705Z,135.00
2018-09-11T15:55:54.709Z,135.00
2018-09-11T15:56:54.527Z,135.00
2018-09-11T15:57:54.448Z,135.00
2018-09-11T15:58:54.369Z,129.38
2018-09-11T15:59:54.305Z,129.38
2018-09-11T16:00:54.243Z,140.63
2018-09-11T16:03:36.315Z,135.00
2018-09-11T16:04:36.241Z,135.00
2018-09-11T16:05:36.203Z,140.63
2018-09-11T16:06:36.129Z,135.00
2018-09-11T16:07:36.012Z,129.38